sensor_id;sensor_type;location;lat;lon;timestamp;temperature;humidity
65836;SHT30;52595;51.608;7.216;2024-01-07T00:01:10;1.62;99.99
65836;SHT30;52595;51.608;7.216;2024-01-07T00:03:36;1.66;99.99
65836;SHT30;52595;51.608;7.216;2024-01-07T00:06:02;1.64;99.99
65836;SHT30;52595;51.608;7.216;2024-01-07T00:08:27;1.66;99.99
65836;SHT30;52595;51.608;7.216;2024-01-07T00:10:53;1.63;99.99
65836;SHT30;52595;51.608;7.216;2024-01-07T00:13:18;1.66;99.99
65836;SHT30;52595;51.608;7.216;2024-01-07T00:15:43;1.67;99.99
65836;SHT30;52595;51.608;7.216;2024-01-07T00:18:09;1.64;99.99
65836;SHT30;52595;51.608;7.216;2024-01-07T00:20:34;1.56;99.99
65836;SHT30;52595;51.608;7.216;2024-01-07T00:23:00;1.52;99.99
65836;SHT30;52595;51.608;7.216;2024-01-07T00:25:25;1.43;99.99
65836;SHT30;52595;51.608;7.216;2024-01-07T00:27:50;1.43;99.99
65836;SHT30;52595;51.608;7.216;2024-01-07T00:30:17;1.46;99.99
65836;SHT30;52595;51.608;7.216;2024-01-07T00:32:44;1.44;99.99
65836;SHT30;52595;51.608;7.216;2024-01-07T00:35:09;1.40;99.99
65836;SHT30;52595;51.608;7.216;2024-01-07T00:37:35;1.44;99.99
65836;SHT30;52595;51.608;7.216;2024-01-07T00:40:00;1.44;99.99
65836;SHT30;52595;51.608;7.216;2024-01-07T00:42:26;1.43;99.99
65836;SHT30;52595;51.608;7.216;2024-01-07T00:44:51;1.42;99.99
65836;SHT30;52595;51.608;7.216;2024-01-07T00:47:16;1.42;99.99
65836;SHT30;52595;51.608;7.216;2024-01-07T00:49:42;1.42;99.99
65836;SHT30;52595;51.608;7.216;2024-01-07T00:52:07;1.36;99.99
65836;SHT30;52595;51.608;7.216;2024-01-07T00:54:33;1.38;99.99
65836;SHT30;52595;51.608;7.216;2024-01-07T00:56:59;1.39;99.99
65836;SHT30;52595;51.608;7.216;2024-01-07T00:59:24;1.42;99.99
65836;SHT30;52595;51.608;7.216;2024-01-07T01:01:50;1.43;99.99
65836;SHT30;52595;51.608;7.216;2024-01-07T01:04:15;1.43;99.99
65836;SHT30;52595;51.608;7.216;2024-01-07T01:06:41;1.44;99.99
65836;SHT30;52595;51.608;7.216;2024-01-07T01:09:06;1.46;99.99
65836;SHT30;52595;51.608;7.216;2024-01-07T01:11:31;1.44;99.99
65836;SHT30;52595;51.608;7.216;2024-01-07T01:13:57;1.44;99.99
65836;SHT30;52595;51.608;7.216;2024-01-07T01:16:22;1.49;99.99
65836;SHT30;52595;51.608;7.216;2024-01-07T01:18:49;1.49;99.99
65836;SHT30;52595;51.608;7.216;2024-01-07T01:21:15;1.50;99.99
65836;SHT30;52595;51.608;7.216;2024-01-07T01:23:40;1.44;99.99
65836;SHT30;52595;51.608;7.216;2024-01-07T01:26:05;1.43;99.99
65836;SHT30;52595;51.608;7.216;2024-01-07T01:28:31;1.38;99.99
65836;SHT30;52595;51.608;7.216;2024-01-07T01:30:56;1.33;99.99
65836;SHT30;52595;51.608;7.216;2024-01-07T01:33:22;1.31;99.99
65836;SHT30;52595;51.608;7.216;2024-01-07T01:35:47;1.31;99.99
65836;SHT30;52595;51.608;7.216;2024-01-07T01:38:13;1.25;99.99
65836;SHT30;52595;51.608;7.216;2024-01-07T01:40:38;1.18;99.99
65836;SHT30;52595;51.608;7.216;2024-01-07T01:43:03;1.19;99.99
65836;SHT30;52595;51.608;7.216;2024-01-07T01:45:29;1.18;99.99
65836;SHT30;52595;51.608;7.216;2024-01-07T01:47:55;1.18;99.99
65836;SHT30;52595;51.608;7.216;2024-01-07T01:50:21;1.18;99.99
65836;SHT30;52595;51.608;7.216;2024-01-07T01:52:47;1.12;99.99
65836;SHT30;52595;51.608;7.216;2024-01-07T01:55:13;1.06;99.99
65836;SHT30;52595;51.608;7.216;2024-01-07T01:57:39;0.98;99.99
65836;SHT30;52595;51.608;7.216;2024-01-07T02:00:05;0.89;99.99
65836;SHT30;52595;51.608;7.216;2024-01-07T02:02:32;0.79;99.99
65836;SHT30;52595;51.608;7.216;2024-01-07T02:05:05;0.69;99.99
65836;SHT30;52595;51.608;7.216;2024-01-07T02:07:31;0.67;99.99
65836;SHT30;52595;51.608;7.216;2024-01-07T02:09:56;0.69;99.99
65836;SHT30;52595;51.608;7.216;2024-01-07T02:12:22;0.72;99.99
65836;SHT30;52595;51.608;7.216;2024-01-07T02:14:47;0.72;99.99
65836;SHT30;52595;51.608;7.216;2024-01-07T02:17:12;0.75;99.99
65836;SHT30;52595;51.608;7.216;2024-01-07T02:19:38;0.72;99.99
65836;SHT30;52595;51.608;7.216;2024-01-07T02:22:04;0.78;99.99
65836;SHT30;52595;51.608;7.216;2024-01-07T02:24:29;0.79;99.99
65836;SHT30;52595;51.608;7.216;2024-01-07T02:26:56;0.78;99.99
65836;SHT30;52595;51.608;7.216;2024-01-07T02:29:21;0.81;99.99
65836;SHT30;52595;51.608;7.216;2024-01-07T02:31:46;0.82;99.99
65836;SHT30;52595;51.608;7.216;2024-01-07T02:34:12;0.82;99.99
65836;SHT30;52595;51.608;7.216;2024-01-07T02:36:37;0.81;99.99
65836;SHT30;52595;51.608;7.216;2024-01-07T02:39:03;0.79;99.99
65836;SHT30;52595;51.608;7.216;2024-01-07T02:41:28;0.85;99.99
65836;SHT30;52595;51.608;7.216;2024-01-07T02:43:54;0.81;99.99
65836;SHT30;52595;51.608;7.216;2024-01-07T02:46:20;0.79;99.99
65836;SHT30;52595;51.608;7.216;2024-01-07T02:48:45;0.77;99.99
65836;SHT30;52595;51.608;7.216;2024-01-07T02:51:10;0.77;99.99
65836;SHT30;52595;51.608;7.216;2024-01-07T02:53:36;0.79;99.99
65836;SHT30;52595;51.608;7.216;2024-01-07T02:56:01;0.75;99.99
65836;SHT30;52595;51.608;7.216;2024-01-07T02:58:27;0.77;99.99
65836;SHT30;52595;51.608;7.216;2024-01-07T03:00:52;0.74;99.99
65836;SHT30;52595;51.608;7.216;2024-01-07T03:03:17;0.75;99.99
65836;SHT30;52595;51.608;7.216;2024-01-07T03:05:43;0.71;99.99
65836;SHT30;52595;51.608;7.216;2024-01-07T03:08:08;0.68;99.99
65836;SHT30;52595;51.608;7.216;2024-01-07T03:10:34;0.67;99.99
65836;SHT30;52595;51.608;7.216;2024-01-07T03:13:00;0.68;99.99
65836;SHT30;52595;51.608;7.216;2024-01-07T03:15:25;0.64;99.99
65836;SHT30;52595;51.608;7.216;2024-01-07T03:17:51;0.67;99.99
65836;SHT30;52595;51.608;7.216;2024-01-07T03:20:16;0.69;99.99
65836;SHT30;52595;51.608;7.216;2024-01-07T03:22:42;0.65;99.99
65836;SHT30;52595;51.608;7.216;2024-01-07T03:25:07;0.68;99.99
65836;SHT30;52595;51.608;7.216;2024-01-07T03:27:33;0.67;99.99
65836;SHT30;52595;51.608;7.216;2024-01-07T03:29:58;0.65;99.99
65836;SHT30;52595;51.608;7.216;2024-01-07T03:32:24;0.69;99.99
65836;SHT30;52595;51.608;7.216;2024-01-07T03:34:49;0.69;99.99
65836;SHT30;52595;51.608;7.216;2024-01-07T03:37:15;0.65;99.99
65836;SHT30;52595;51.608;7.216;2024-01-07T03:39:40;0.62;99.99
65836;SHT30;52595;51.608;7.216;2024-01-07T03:42:05;0.64;99.99
65836;SHT30;52595;51.608;7.216;2024-01-07T03:44:36;0.62;99.99
65836;SHT30;52595;51.608;7.216;2024-01-07T03:47:02;0.62;99.99
65836;SHT30;52595;51.608;7.216;2024-01-07T03:49:27;0.62;99.99
65836;SHT30;52595;51.608;7.216;2024-01-07T03:51:52;0.57;99.99
65836;SHT30;52595;51.608;7.216;2024-01-07T03:54:18;0.57;99.99
65836;SHT30;52595;51.608;7.216;2024-01-07T03:56:43;0.60;99.99
65836;SHT30;52595;51.608;7.216;2024-01-07T03:59:09;0.58;99.99
65836;SHT30;52595;51.608;7.216;2024-01-07T04:01:34;0.60;99.99
65836;SHT30;52595;51.608;7.216;2024-01-07T04:03:59;0.58;99.99
65836;SHT30;52595;51.608;7.216;2024-01-07T04:06:25;0.53;99.99
65836;SHT30;52595;51.608;7.216;2024-01-07T04:08:50;0.47;99.99
65836;SHT30;52595;51.608;7.216;2024-01-07T04:11:15;0.53;99.99
65836;SHT30;52595;51.608;7.216;2024-01-07T04:13:41;0.46;99.99
65836;SHT30;52595;51.608;7.216;2024-01-07T04:16:18;0.41;99.99
65836;SHT30;52595;51.608;7.216;2024-01-07T04:18:44;0.41;99.99
65836;SHT30;52595;51.608;7.216;2024-01-07T04:21:10;0.38;99.99
65836;SHT30;52595;51.608;7.216;2024-01-07T04:23:36;0.41;99.99
65836;SHT30;52595;51.608;7.216;2024-01-07T04:26:01;0.37;99.99
65836;SHT30;52595;51.608;7.216;2024-01-07T04:28:27;0.40;99.99
65836;SHT30;52595;51.608;7.216;2024-01-07T04:30:52;0.37;99.99
65836;SHT30;52595;51.608;7.216;2024-01-07T04:33:18;0.38;99.99
65836;SHT30;52595;51.608;7.216;2024-01-07T04:35:43;0.37;99.99
65836;SHT30;52595;51.608;7.216;2024-01-07T04:38:08;0.41;99.99
65836;SHT30;52595;51.608;7.216;2024-01-07T04:40:34;0.41;99.99
65836;SHT30;52595;51.608;7.216;2024-01-07T04:42:59;0.40;99.99
65836;SHT30;52595;51.608;7.216;2024-01-07T04:45:25;0.37;99.99
65836;SHT30;52595;51.608;7.216;2024-01-07T04:47:50;0.40;99.99
65836;SHT30;52595;51.608;7.216;2024-01-07T04:50:16;0.34;99.99
65836;SHT30;52595;51.608;7.216;2024-01-07T04:52:45;0.40;99.99
65836;SHT30;52595;51.608;7.216;2024-01-07T04:55:11;0.44;99.99
65836;SHT30;52595;51.608;7.216;2024-01-07T04:57:36;0.38;99.99
65836;SHT30;52595;51.608;7.216;2024-01-07T05:00:02;0.34;99.99
65836;SHT30;52595;51.608;7.216;2024-01-07T05:02:29;0.40;99.99
65836;SHT30;52595;51.608;7.216;2024-01-07T05:04:54;0.36;99.99
65836;SHT30;52595;51.608;7.216;2024-01-07T05:07:19;0.36;99.99
65836;SHT30;52595;51.608;7.216;2024-01-07T05:09:45;0.40;99.99
65836;SHT30;52595;51.608;7.216;2024-01-07T05:12:10;0.41;99.99
65836;SHT30;52595;51.608;7.216;2024-01-07T05:14:36;0.43;99.99
65836;SHT30;52595;51.608;7.216;2024-01-07T05:17:02;0.41;99.99
65836;SHT30;52595;51.608;7.216;2024-01-07T05:19:28;0.36;99.99
65836;SHT30;52595;51.608;7.216;2024-01-07T05:21:53;0.38;99.99
65836;SHT30;52595;51.608;7.216;2024-01-07T05:24:19;0.40;99.99
65836;SHT30;52595;51.608;7.216;2024-01-07T05:26:44;0.38;99.99
65836;SHT30;52595;51.608;7.216;2024-01-07T05:29:10;0.33;99.99
65836;SHT30;52595;51.608;7.216;2024-01-07T05:31:38;0.33;99.99
65836;SHT30;52595;51.608;7.216;2024-01-07T05:34:03;0.34;99.99
65836;SHT30;52595;51.608;7.216;2024-01-07T05:36:29;0.34;99.99
65836;SHT30;52595;51.608;7.216;2024-01-07T05:38:54;0.37;99.99
65836;SHT30;52595;51.608;7.216;2024-01-07T05:41:20;0.36;99.99
65836;SHT30;52595;51.608;7.216;2024-01-07T05:43:45;0.34;99.99
65836;SHT30;52595;51.608;7.216;2024-01-07T05:46:11;0.31;99.99
65836;SHT30;52595;51.608;7.216;2024-01-07T05:48:48;0.30;99.99
65836;SHT30;52595;51.608;7.216;2024-01-07T05:51:14;0.27;99.99
65836;SHT30;52595;51.608;7.216;2024-01-07T05:53:41;0.26;99.99
65836;SHT30;52595;51.608;7.216;2024-01-07T05:56:06;0.28;99.99
65836;SHT30;52595;51.608;7.216;2024-01-07T05:58:32;0.27;99.99
65836;SHT30;52595;51.608;7.216;2024-01-07T06:00:57;0.26;99.99
65836;SHT30;52595;51.608;7.216;2024-01-07T06:03:23;0.26;99.99
65836;SHT30;52595;51.608;7.216;2024-01-07T06:05:48;0.26;99.99
65836;SHT30;52595;51.608;7.216;2024-01-07T06:08:14;0.28;99.99
65836;SHT30;52595;51.608;7.216;2024-01-07T06:10:40;0.24;99.99
65836;SHT30;52595;51.608;7.216;2024-01-07T06:13:05;0.23;99.99
65836;SHT30;52595;51.608;7.216;2024-01-07T06:15:30;0.20;99.99
65836;SHT30;52595;51.608;7.216;2024-01-07T06:17:56;0.23;99.99
65836;SHT30;52595;51.608;7.216;2024-01-07T06:20:21;0.20;99.99
65836;SHT30;52595;51.608;7.216;2024-01-07T06:22:47;0.21;99.99
65836;SHT30;52595;51.608;7.216;2024-01-07T06:25:12;0.20;99.99
65836;SHT30;52595;51.608;7.216;2024-01-07T06:27:41;0.14;99.99
65836;SHT30;52595;51.608;7.216;2024-01-07T06:30:07;0.18;99.99
65836;SHT30;52595;51.608;7.216;2024-01-07T06:32:33;0.16;99.99
65836;SHT30;52595;51.608;7.216;2024-01-07T06:34:59;0.20;99.99
65836;SHT30;52595;51.608;7.216;2024-01-07T06:37:24;0.21;99.99
65836;SHT30;52595;51.608;7.216;2024-01-07T06:39:50;0.26;99.99
65836;SHT30;52595;51.608;7.216;2024-01-07T06:42:16;0.21;99.99
65836;SHT30;52595;51.608;7.216;2024-01-07T06:44:41;0.23;99.84
65836;SHT30;52595;51.608;7.216;2024-01-07T06:47:06;0.16;99.70
65836;SHT30;52595;51.608;7.216;2024-01-07T06:49:32;0.18;99.99
65836;SHT30;52595;51.608;7.216;2024-01-07T06:51:57;0.23;99.90
65836;SHT30;52595;51.608;7.216;2024-01-07T06:54:23;0.18;99.80
65836;SHT30;52595;51.608;7.216;2024-01-07T06:56:48;0.18;99.80
65836;SHT30;52595;51.608;7.216;2024-01-07T06:59:13;0.17;99.87
65836;SHT30;52595;51.608;7.216;2024-01-07T07:01:39;0.18;99.90
65836;SHT30;52595;51.608;7.216;2024-01-07T07:04:05;0.18;99.73
65836;SHT30;52595;51.608;7.216;2024-01-07T07:06:30;0.21;99.83
65836;SHT30;52595;51.608;7.216;2024-01-07T07:08:55;0.18;99.79
65836;SHT30;52595;51.608;7.216;2024-01-07T07:11:21;0.21;99.80
65836;SHT30;52595;51.608;7.216;2024-01-07T07:13:46;0.26;99.44
65836;SHT30;52595;51.608;7.216;2024-01-07T07:16:11;0.24;99.72
65836;SHT30;52595;51.608;7.216;2024-01-07T07:18:37;0.24;99.55
65836;SHT30;52595;51.608;7.216;2024-01-07T07:21:03;0.17;99.25
65836;SHT30;52595;51.608;7.216;2024-01-07T07:23:28;0.16;98.88
65836;SHT30;52595;51.608;7.216;2024-01-07T07:25:53;0.16;98.78
65836;SHT30;52595;51.608;7.216;2024-01-07T07:28:19;0.14;99.23
65836;SHT30;52595;51.608;7.216;2024-01-07T07:30:44;0.11;99.42
65836;SHT30;52595;51.608;7.216;2024-01-07T07:33:10;0.07;99.60
65836;SHT30;52595;51.608;7.216;2024-01-07T07:35:35;0.04;99.89
65836;SHT30;52595;51.608;7.216;2024-01-07T07:38:00;0.03;99.99
65836;SHT30;52595;51.608;7.216;2024-01-07T07:40:26;0.03;99.86
65836;SHT30;52595;51.608;7.216;2024-01-07T07:42:51;-0.04;99.62
65836;SHT30;52595;51.608;7.216;2024-01-07T07:45:17;-0.03;99.59
65836;SHT30;52595;51.608;7.216;2024-01-07T07:47:44;0.00;99.16
65836;SHT30;52595;51.608;7.216;2024-01-07T07:50:10;0.00;99.05
65836;SHT30;52595;51.608;7.216;2024-01-07T07:52:36;0.04;98.63
65836;SHT30;52595;51.608;7.216;2024-01-07T07:55:01;0.04;98.06
65836;SHT30;52595;51.608;7.216;2024-01-07T07:57:27;0.06;98.02
65836;SHT30;52595;51.608;7.216;2024-01-07T07:59:54;0.00;97.50
65836;SHT30;52595;51.608;7.216;2024-01-07T08:02:19;0.02;97.21
65836;SHT30;52595;51.608;7.216;2024-01-07T08:04:46;0.04;97.60
65836;SHT30;52595;51.608;7.216;2024-01-07T08:07:12;0.06;97.46
65836;SHT30;52595;51.608;7.216;2024-01-07T08:09:37;0.06;97.30
65836;SHT30;52595;51.608;7.216;2024-01-07T08:12:04;0.04;97.17
65836;SHT30;52595;51.608;7.216;2024-01-07T08:14:30;0.06;97.30
65836;SHT30;52595;51.608;7.216;2024-01-07T08:16:56;0.04;97.21
65836;SHT30;52595;51.608;7.216;2024-01-07T08:19:21;0.09;97.21
65836;SHT30;52595;51.608;7.216;2024-01-07T08:21:47;0.03;97.05
65836;SHT30;52595;51.608;7.216;2024-01-07T08:24:12;0.07;97.15
65836;SHT30;52595;51.608;7.216;2024-01-07T08:26:38;0.07;97.09
65836;SHT30;52595;51.608;7.216;2024-01-07T08:29:04;0.09;96.85
65836;SHT30;52595;51.608;7.216;2024-01-07T08:31:29;0.10;96.91
65836;SHT30;52595;51.608;7.216;2024-01-07T08:33:55;0.04;96.87
65836;SHT30;52595;51.608;7.216;2024-01-07T08:36:20;0.04;96.76
65836;SHT30;52595;51.608;7.216;2024-01-07T08:38:46;0.02;97.02
65836;SHT30;52595;51.608;7.216;2024-01-07T08:41:11;0.02;97.53
65836;SHT30;52595;51.608;7.216;2024-01-07T08:43:37;0.03;97.41
65836;SHT30;52595;51.608;7.216;2024-01-07T08:46:04;0.03;97.51
65836;SHT30;52595;51.608;7.216;2024-01-07T08:48:30;-0.03;97.54
65836;SHT30;52595;51.608;7.216;2024-01-07T08:50:55;-0.01;97.84
65836;SHT30;52595;51.608;7.216;2024-01-07T08:53:20;-0.06;97.18
65836;SHT30;52595;51.608;7.216;2024-01-07T08:55:47;-0.01;97.34
65836;SHT30;52595;51.608;7.216;2024-01-07T08:58:13;-0.01;97.29
65836;SHT30;52595;51.608;7.216;2024-01-07T09:00:39;-0.06;97.39
65836;SHT30;52595;51.608;7.216;2024-01-07T09:03:05;-0.07;97.21
65836;SHT30;52595;51.608;7.216;2024-01-07T09:05:32;-0.10;97.19
65836;SHT30;52595;51.608;7.216;2024-01-07T09:07:57;-0.13;96.81
65836;SHT30;52595;51.608;7.216;2024-01-07T09:10:22;-0.14;96.93
65836;SHT30;52595;51.608;7.216;2024-01-07T09:12:50;-0.07;97.18
65836;SHT30;52595;51.608;7.216;2024-01-07T09:15:18;-0.03;97.00
65836;SHT30;52595;51.608;7.216;2024-01-07T09:17:43;0.00;96.74
65836;SHT30;52595;51.608;7.216;2024-01-07T09:20:10;0.02;96.62
65836;SHT30;52595;51.608;7.216;2024-01-07T09:22:36;-0.01;96.19
65836;SHT30;52595;51.608;7.216;2024-01-07T09:25:03;0.00;96.42
65836;SHT30;52595;51.608;7.216;2024-01-07T09:27:32;-0.03;95.84
65836;SHT30;52595;51.608;7.216;2024-01-07T09:29:57;-0.03;95.84
65836;SHT30;52595;51.608;7.216;2024-01-07T09:32:23;0.07;95.91
65836;SHT30;52595;51.608;7.216;2024-01-07T09:34:48;0.11;95.62
65836;SHT30;52595;51.608;7.216;2024-01-07T09:37:14;0.11;95.01
65836;SHT30;52595;51.608;7.216;2024-01-07T09:39:40;0.14;94.89
65836;SHT30;52595;51.608;7.216;2024-01-07T09:42:14;0.11;94.65
65836;SHT30;52595;51.608;7.216;2024-01-07T09:44:43;0.16;94.65
65836;SHT30;52595;51.608;7.216;2024-01-07T09:47:14;0.17;94.28
65836;SHT30;52595;51.608;7.216;2024-01-07T09:49:39;0.14;93.69
65836;SHT30;52595;51.608;7.216;2024-01-07T09:52:05;0.11;93.40
65836;SHT30;52595;51.608;7.216;2024-01-07T09:54:31;0.21;93.70
65836;SHT30;52595;51.608;7.216;2024-01-07T09:57:02;0.13;92.91
65836;SHT30;52595;51.608;7.216;2024-01-07T09:59:29;0.06;93.20
65836;SHT30;52595;51.608;7.216;2024-01-07T10:01:55;0.09;93.34
65836;SHT30;52595;51.608;7.216;2024-01-07T10:04:21;0.11;93.58
65836;SHT30;52595;51.608;7.216;2024-01-07T10:06:46;0.23;93.37
65836;SHT30;52595;51.608;7.216;2024-01-07T10:09:15;0.34;93.51
65836;SHT30;52595;51.608;7.216;2024-01-07T10:11:40;0.33;92.59
65836;SHT30;52595;51.608;7.216;2024-01-07T10:14:06;0.40;92.09
65836;SHT30;52595;51.608;7.216;2024-01-07T10:16:33;0.41;91.60
65836;SHT30;52595;51.608;7.216;2024-01-07T10:18:58;0.37;91.54
65836;SHT30;52595;51.608;7.216;2024-01-07T10:21:24;0.36;90.94
65836;SHT30;52595;51.608;7.216;2024-01-07T10:23:49;0.44;91.12
65836;SHT30;52595;51.608;7.216;2024-01-07T10:26:15;0.38;91.36
65836;SHT30;52595;51.608;7.216;2024-01-07T10:28:41;0.48;91.13
65836;SHT30;52595;51.608;7.216;2024-01-07T10:31:08;0.48;90.63
65836;SHT30;52595;51.608;7.216;2024-01-07T10:33:34;0.54;90.33
65836;SHT30;52595;51.608;7.216;2024-01-07T10:36:05;0.47;90.49
65836;SHT30;52595;51.608;7.216;2024-01-07T10:38:32;0.56;90.39
65836;SHT30;52595;51.608;7.216;2024-01-07T10:41:01;0.57;89.80
65836;SHT30;52595;51.608;7.216;2024-01-07T10:43:29;0.51;89.00
65836;SHT30;52595;51.608;7.216;2024-01-07T10:45:55;0.47;88.91
65836;SHT30;52595;51.608;7.216;2024-01-07T10:48:21;0.40;89.74
65836;SHT30;52595;51.608;7.216;2024-01-07T10:50:50;0.34;89.53
65836;SHT30;52595;51.608;7.216;2024-01-07T10:53:21;0.27;89.80
65836;SHT30;52595;51.608;7.216;2024-01-07T10:56:00;0.09;89.22
65836;SHT30;52595;51.608;7.216;2024-01-07T10:58:30;0.09;89.20
65836;SHT30;52595;51.608;7.216;2024-01-07T11:00:56;0.21;89.50
65836;SHT30;52595;51.608;7.216;2024-01-07T11:03:33;0.26;88.82
65836;SHT30;52595;51.608;7.216;2024-01-07T11:08:46;0.26;88.71
65836;SHT30;52595;51.608;7.216;2024-01-07T11:11:31;0.27;89.14
65836;SHT30;52595;51.608;7.216;2024-01-07T11:13:57;0.30;88.33
65836;SHT30;52595;51.608;7.216;2024-01-07T11:16:42;0.41;87.44
65836;SHT30;52595;51.608;7.216;2024-01-07T11:19:07;0.31;87.13
65836;SHT30;52595;51.608;7.216;2024-01-07T11:21:33;0.11;87.24
65836;SHT30;52595;51.608;7.216;2024-01-07T11:23:58;0.00;86.86
65836;SHT30;52595;51.608;7.216;2024-01-07T11:26:23;-0.04;86.81
65836;SHT30;52595;51.608;7.216;2024-01-07T11:28:54;-0.22;86.58
65836;SHT30;52595;51.608;7.216;2024-01-07T11:34:06;-0.38;86.52
65836;SHT30;52595;51.608;7.216;2024-01-07T11:36:35;-0.44;86.31
65836;SHT30;52595;51.608;7.216;2024-01-07T11:39:01;-0.48;86.89
65836;SHT30;52595;51.608;7.216;2024-01-07T11:41:28;-0.58;87.06
65836;SHT30;52595;51.608;7.216;2024-01-07T11:43:58;-0.61;87.18
65836;SHT30;52595;51.608;7.216;2024-01-07T11:46:27;-0.64;87.32
65836;SHT30;52595;51.608;7.216;2024-01-07T11:48:55;-0.61;87.19
65836;SHT30;52595;51.608;7.216;2024-01-07T11:51:30;-0.62;87.35
65836;SHT30;52595;51.608;7.216;2024-01-07T11:53:57;-0.57;87.70
65836;SHT30;52595;51.608;7.216;2024-01-07T11:56:24;-0.59;86.95
65836;SHT30;52595;51.608;7.216;2024-01-07T11:58:49;-0.58;86.71
65836;SHT30;52595;51.608;7.216;2024-01-07T12:01:15;-0.52;85.48
65836;SHT30;52595;51.608;7.216;2024-01-07T12:03:43;-0.49;85.48
65836;SHT30;52595;51.608;7.216;2024-01-07T12:06:09;-0.49;85.51
65836;SHT30;52595;51.608;7.216;2024-01-07T12:08:38;-0.57;85.30
65836;SHT30;52595;51.608;7.216;2024-01-07T12:11:05;-0.55;85.15
65836;SHT30;52595;51.608;7.216;2024-01-07T12:13:30;-0.37;85.14
65836;SHT30;52595;51.608;7.216;2024-01-07T12:15:56;-0.18;85.17
65836;SHT30;52595;51.608;7.216;2024-01-07T12:18:22;0.04;84.45
65836;SHT30;52595;51.608;7.216;2024-01-07T12:20:59;0.20;84.21
65836;SHT30;52595;51.608;7.216;2024-01-07T12:23:25;0.06;84.14
65836;SHT30;52595;51.608;7.216;2024-01-07T12:25:54;0.14;84.26
65836;SHT30;52595;51.608;7.216;2024-01-07T12:28:23;0.14;84.15
65836;SHT30;52595;51.608;7.216;2024-01-07T12:30:48;0.03;83.97
65836;SHT30;52595;51.608;7.216;2024-01-07T12:33:19;-0.08;83.85
65836;SHT30;52595;51.608;7.216;2024-01-07T12:35:47;-0.22;84.52
65836;SHT30;52595;51.608;7.216;2024-01-07T12:38:13;-0.21;84.22
65836;SHT30;52595;51.608;7.216;2024-01-07T12:40:38;-0.24;84.05
65836;SHT30;52595;51.608;7.216;2024-01-07T12:43:05;-0.18;83.47
65836;SHT30;52595;51.608;7.216;2024-01-07T12:45:32;-0.11;83.98
65836;SHT30;52595;51.608;7.216;2024-01-07T12:47:58;-0.07;83.96
65836;SHT30;52595;51.608;7.216;2024-01-07T12:50:27;-0.22;83.38
65836;SHT30;52595;51.608;7.216;2024-01-07T12:52:55;-0.14;82.94
65836;SHT30;52595;51.608;7.216;2024-01-07T12:55:22;-0.06;83.36
65836;SHT30;52595;51.608;7.216;2024-01-07T12:57:47;-0.13;83.82
65836;SHT30;52595;51.608;7.216;2024-01-07T13:00:13;-0.07;83.57
65836;SHT30;52595;51.608;7.216;2024-01-07T13:02:38;-0.01;83.63
65836;SHT30;52595;51.608;7.216;2024-01-07T13:05:05;0.02;83.56
65836;SHT30;52595;51.608;7.216;2024-01-07T13:07:31;0.07;83.83
65836;SHT30;52595;51.608;7.216;2024-01-07T13:09:57;0.07;83.56
65836;SHT30;52595;51.608;7.216;2024-01-07T13:12:22;0.00;82.74
65836;SHT30;52595;51.608;7.216;2024-01-07T13:14:48;0.09;82.50
65836;SHT30;52595;51.608;7.216;2024-01-07T13:17:14;0.07;82.01
65836;SHT30;52595;51.608;7.216;2024-01-07T13:19:39;0.10;81.95
65836;SHT30;52595;51.608;7.216;2024-01-07T13:22:05;0.14;81.91
65836;SHT30;52595;51.608;7.216;2024-01-07T13:24:30;0.09;82.22
65836;SHT30;52595;51.608;7.216;2024-01-07T13:26:56;0.13;82.39
65836;SHT30;52595;51.608;7.216;2024-01-07T13:29:21;0.14;82.40
65836;SHT30;52595;51.608;7.216;2024-01-07T13:31:47;0.09;82.55
65836;SHT30;52595;51.608;7.216;2024-01-07T13:34:12;0.03;81.76
65836;SHT30;52595;51.608;7.216;2024-01-07T13:36:39;0.06;81.56
65836;SHT30;52595;51.608;7.216;2024-01-07T13:39:05;0.07;81.28
65836;SHT30;52595;51.608;7.216;2024-01-07T13:41:33;0.02;81.74
65836;SHT30;52595;51.608;7.216;2024-01-07T13:43:59;0.09;81.49
65836;SHT30;52595;51.608;7.216;2024-01-07T13:46:24;0.00;81.71
65836;SHT30;52595;51.608;7.216;2024-01-07T13:48:50;0.02;81.64
65836;SHT30;52595;51.608;7.216;2024-01-07T13:51:17;0.14;81.69
65836;SHT30;52595;51.608;7.216;2024-01-07T13:53:42;0.10;82.19
65836;SHT30;52595;51.608;7.216;2024-01-07T13:56:08;0.14;82.22
65836;SHT30;52595;51.608;7.216;2024-01-07T13:58:33;0.13;81.69
65836;SHT30;52595;51.608;7.216;2024-01-07T14:00:59;0.16;82.29
65836;SHT30;52595;51.608;7.216;2024-01-07T14:03:24;0.13;82.15
65836;SHT30;52595;51.608;7.216;2024-01-07T14:05:50;0.16;82.72
65836;SHT30;52595;51.608;7.216;2024-01-07T14:08:16;0.13;82.26
65836;SHT30;52595;51.608;7.216;2024-01-07T14:10:42;0.14;82.05
65836;SHT30;52595;51.608;7.216;2024-01-07T14:13:07;0.16;81.65
65836;SHT30;52595;51.608;7.216;2024-01-07T14:15:32;0.13;82.04
65836;SHT30;52595;51.608;7.216;2024-01-07T14:17:58;0.11;81.98
65836;SHT30;52595;51.608;7.216;2024-01-07T14:20:23;0.07;81.93
65836;SHT30;52595;51.608;7.216;2024-01-07T14:22:49;0.13;82.11
65836;SHT30;52595;51.608;7.216;2024-01-07T14:25:14;0.13;81.92
65836;SHT30;52595;51.608;7.216;2024-01-07T14:27:40;0.16;82.39
65836;SHT30;52595;51.608;7.216;2024-01-07T14:30:06;0.16;82.25
65836;SHT30;52595;51.608;7.216;2024-01-07T14:32:33;0.10;82.26
65836;SHT30;52595;51.608;7.216;2024-01-07T14:34:58;0.03;82.30
65836;SHT30;52595;51.608;7.216;2024-01-07T14:37:23;0.04;82.85
65836;SHT30;52595;51.608;7.216;2024-01-07T14:39:49;0.04;82.95
65836;SHT30;52595;51.608;7.216;2024-01-07T14:42:14;0.04;83.51
65836;SHT30;52595;51.608;7.216;2024-01-07T14:44:40;0.09;83.57
65836;SHT30;52595;51.608;7.216;2024-01-07T14:47:06;0.06;83.52
65836;SHT30;52595;51.608;7.216;2024-01-07T14:49:31;0.07;83.60
65836;SHT30;52595;51.608;7.216;2024-01-07T14:51:57;0.07;83.20
65836;SHT30;52595;51.608;7.216;2024-01-07T14:54:22;0.06;82.89
65836;SHT30;52595;51.608;7.216;2024-01-07T14:56:48;0.02;82.53
65836;SHT30;52595;51.608;7.216;2024-01-07T14:59:13;0.03;82.63
65836;SHT30;52595;51.608;7.216;2024-01-07T15:01:39;0.00;82.80
65836;SHT30;52595;51.608;7.216;2024-01-07T15:04:07;0.00;83.50
65836;SHT30;52595;51.608;7.216;2024-01-07T15:06:39;0.03;83.48
65836;SHT30;52595;51.608;7.216;2024-01-07T15:09:06;0.02;82.75
65836;SHT30;52595;51.608;7.216;2024-01-07T15:11:31;0.04;82.63
65836;SHT30;52595;51.608;7.216;2024-01-07T15:13:57;-0.03;83.03
65836;SHT30;52595;51.608;7.216;2024-01-07T15:16:23;-0.03;83.45
65836;SHT30;52595;51.608;7.216;2024-01-07T15:18:48;-0.01;83.65
65836;SHT30;52595;51.608;7.216;2024-01-07T15:21:13;-0.03;83.72
65836;SHT30;52595;51.608;7.216;2024-01-07T15:23:39;-0.04;83.61
65836;SHT30;52595;51.608;7.216;2024-01-07T15:26:04;-0.07;84.20
65836;SHT30;52595;51.608;7.216;2024-01-07T15:28:29;-0.06;84.00
65836;SHT30;52595;51.608;7.216;2024-01-07T15:30:55;-0.07;84.39
65836;SHT30;52595;51.608;7.216;2024-01-07T15:33:21;-0.06;84.68
65836;SHT30;52595;51.608;7.216;2024-01-07T15:35:47;-0.08;84.87
65836;SHT30;52595;51.608;7.216;2024-01-07T15:38:13;-0.10;84.57
65836;SHT30;52595;51.608;7.216;2024-01-07T15:40:38;-0.07;85.30